Time;durP1;ratioP1;P1;durP2;ratioP2;P2;SDS_P1;SDS_P2;PMS_P1;PMS_P2;Temp;Humidity;BMP_temperature;BMP_pressure;BME280_temperature;BME280_humidity;BME280_pressure;Samples;Min_cycle;Max_cycle;Signal;HPM_P1;HPM_P2
2022/07/20 00:02:08;;;;;;;5.30;4.30;;;21.00;99.90;;;;;;5009393;28;20511;-52
2022/07/20 00:04:35;;;;;;;5.67;5.07;;;21.00;99.90;;;;;;5006914;28;20487;-51
2022/07/20 00:07:01;;;;;;;5.50;4.90;;;21.00;99.90;;;;;;5012516;28;20506;-54
2022/07/20 00:12:12;;;;;;;5.47;5.07;;;20.90;99.90;;;;;;5011609;28;20482;-53
2022/07/20 00:14:39;;;;;;;5.70;5.17;;;20.90;99.90;;;;;;5009246;28;20914;-53
2022/07/20 00:17:06;;;;;;;10.90;5.33;;;20.90;99.90;;;;;;5011657;28;20464;-52
2022/07/20 00:19:34;;;;;;;6.10;4.60;;;20.80;99.90;;;;;;5006637;28;20976;-53
2022/07/20 00:22:00;;;;;;;9.37;4.73;;;20.80;99.90;;;;;;5008881;28;20541;-53
2022/07/20 00:24:27;;;;;;;6.53;5.00;;;20.80;99.90;;;;;;5009396;28;20519;-53
2022/07/20 00:26:53;;;;;;;7.70;5.30;;;20.80;99.90;;;;;;5007930;28;21007;-52
2022/07/20 00:29:20;;;;;;;10.40;5.20;;;20.80;99.90;;;;;;5008170;28;20499;-52
2022/07/20 00:31:46;;;;;;;9.13;5.10;;;20.80;99.90;;;;;;5010189;28;20487;-53
2022/07/20 00:34:13;;;;;;;7.33;4.60;;;20.70;99.90;;;;;;5007568;28;20506;-52
2022/07/20 00:36:41;;;;;;;5.10;4.60;;;20.70;99.90;;;;;;5009619;28;20985;-52
2022/07/20 00:39:07;;;;;;;5.60;5.03;;;20.70;99.90;;;;;;5011532;28;20495;-52
2022/07/20 00:41:34;;;;;;;9.07;4.93;;;20.70;99.90;;;;;;5009943;28;21009;-51
2022/07/20 00:44:03;;;;;;;5.77;4.97;;;20.60;99.90;;;;;;5010379;28;20561;-52
2022/07/20 00:46:32;;;;;;;8.70;5.30;;;20.70;99.90;;;;;;5010727;28;20495;-52
2022/07/20 00:48:59;;;;;;;6.47;5.47;;;20.60;99.90;;;;;;5011225;28;21037;-51
2022/07/20 00:51:26;;;;;;;5.73;5.03;;;20.50;99.90;;;;;;5004365;28;20492;-52
2022/07/20 00:53:54;;;;;;;8.40;5.23;;;20.50;99.90;;;;;;5010753;28;20515;-51
2022/07/20 00:56:21;;;;;;;11.87;6.87;;;20.50;99.90;;;;;;5006936;28;20869;-51
2022/07/20 00:58:48;;;;;;;11.70;5.40;;;20.40;99.90;;;;;;5006972;28;20518;-53
2022/07/20 01:01:16;;;;;;;5.50;4.47;;;20.40;99.90;;;;;;5008207;28;20523;-51
2022/07/20 01:03:43;;;;;;;12.43;4.50;;;20.30;99.90;;;;;;5008360;28;20525;-52
2022/07/20 01:06:11;;;;;;;5.57;4.90;;;20.30;99.90;;;;;;5008633;28;20463;-51
2022/07/20 01:08:37;;;;;;;5.77;5.17;;;20.30;99.90;;;;;;5011600;28;20526;-52
2022/07/20 01:11:06;;;;;;;9.13;4.60;;;20.20;99.90;;;;;;5007190;28;20464;-52
2022/07/20 01:13:33;;;;;;;5.47;5.07;;;20.20;99.90;;;;;;5008261;28;21005;-52
2022/07/20 01:16:00;;;;;;;5.07;4.57;;;20.20;99.90;;;;;;5008475;28;20491;-52
2022/07/20 01:18:26;;;;;;;5.40;4.97;;;20.20;99.90;;;;;;5011094;28;20499;-52
2022/07/20 01:20:59;;;;;;;9.23;5.07;;;20.10;99.90;;;;;;5006041;28;20488;-52
2022/07/20 01:23:26;;;;;;;9.07;5.30;;;20.10;99.90;;;;;;5009666;28;20578;-52
2022/07/20 01:25:52;;;;;;;8.53;5.33;;;20.10;99.90;;;;;;5005899;28;20455;-51
2022/07/20 01:28:19;;;;;;;5.87;5.33;;;20.10;99.90;;;;;;5009624;28;20978;-52
2022/07/20 01:30:45;;;;;;;9.20;5.67;;;20.10;99.90;;;;;;5008477;28;20894;-52
2022/07/20 01:33:12;;;;;;;7.47;5.63;;;20.10;99.90;;;;;;5008044;28;20463;-51
2022/07/20 01:35:38;;;;;;;5.30;4.90;;;20.10;99.90;;;;;;5008870;28;20503;-51
2022/07/20 01:38:07;;;;;;;6.00;5.43;;;20.10;99.90;;;;;;5006289;28;20495;-53
2022/07/20 01:40:40;;;;;;;8.23;5.43;;;20.00;99.90;;;;;;5007156;28;20515;-51
2022/07/20 01:43:06;;;;;;;6.10;5.50;;;20.00;99.90;;;;;;5005297;28;20455;-52
2022/07/20 01:45:33;;;;;;;5.77;4.83;;;19.90;99.90;;;;;;5008522;28;20479;-52
2022/07/20 01:48:00;;;;;;;6.53;5.93;;;19.90;99.90;;;;;;5010275;28;20451;-51
2022/07/20 01:50:26;;;;;;;7.60;5.50;;;19.80;99.90;;;;;;5007647;28;20950;-51
2022/07/20 01:52:53;;;;;;;13.80;5.90;;;19.80;99.90;;;;;;5009449;28;20533;-53
2022/07/20 01:55:21;;;;;;;13.83;5.33;;;19.70;99.90;;;;;;5005802;28;20555;-53
2022/07/20 01:57:48;;;;;;;10.97;5.50;;;19.70;99.90;;;;;;5007565;28;20468;-50
2022/07/20 02:00:14;;;;;;;7.07;5.30;;;19.70;97.00;;;;;;5007906;28;20460;-54
2022/07/20 02:02:42;;;;;;;6.80;6.07;;;19.60;99.90;;;;;;5003369;28;20492;-52
2022/07/20 02:05:10;;;;;;;10.67;4.90;;;19.60;99.90;;;;;;5004070;28;20527;-51
2022/07/20 02:07:37;;;;;;;6.33;5.57;;;19.50;99.90;;;;;;5009250;28;20885;-52
2022/07/20 02:10:05;;;;;;;10.23;6.60;;;19.50;99.90;;;;;;5006987;28;20620;-51
2022/07/20 02:12:33;;;;;;;9.47;5.57;;;19.50;99.90;;;;;;5005672;28;20534;-52
2022/07/20 02:15:00;;;;;;;13.10;6.07;;;19.50;99.90;;;;;;5009310;28;20476;-52
2022/07/20 02:17:26;;;;;;;6.40;5.67;;;19.40;99.90;;;;;;5010612;28;20510;-51
2022/07/20 02:19:53;;;;;;;16.50;7.80;;;19.40;99.90;;;;;;5007222;28;20463;-53
2022/07/20 02:22:20;;;;;;;6.07;4.93;;;19.40;99.90;;;;;;5003244;28;20475;-51
2022/07/20 02:24:46;;;;;;;6.27;5.67;;;19.40;98.40;;;;;;5006392;28;20541;-53
2022/07/20 02:27:13;;;;;;;6.10;5.43;;;19.40;99.90;;;;;;5007213;28;20823;-52
2022/07/20 02:29:41;;;;;;;11.90;6.00;;;19.30;99.80;;;;;;5006972;28;20463;-52
2022/07/20 02:32:08;;;;;;;7.93;7.10;;;19.30;96.80;;;;;;5006921;28;20526;-51
2022/07/20 02:34:34;;;;;;;5.97;5.47;;;19.30;94.40;;;;;;5002586;28;20475;-51
2022/07/20 02:37:01;;;;;;;6.37;5.60;;;19.20;94.70;;;;;;5003206;28;20451;-51
2022/07/20 02:39:27;;;;;;;5.97;5.40;;;19.20;95.70;;;;;;5006441;28;20518;-52
2022/07/20 02:41:54;;;;;;;7.00;5.77;;;19.20;95.00;;;;;;5007192;28;22464;-51
2022/07/20 02:44:20;;;;;;;7.47;6.63;;;19.10;94.40;;;;;;5007406;28;20475;-52
2022/07/20 02:46:48;;;;;;;6.00;5.40;;;19.10;93.70;;;;;;5009049;28;20456;-50
2022/07/20 02:49:15;;;;;;;7.27;6.50;;;19.10;89.70;;;;;;5009089;28;20459;-51
2022/07/20 02:51:41;;;;;;;6.40;5.80;;;19.10;89.60;;;;;;5008208;28;20514;-51
2022/07/20 02:54:08;;;;;;;6.90;5.90;;;19.00;88.00;;;;;;5009873;28;20511;-52
2022/07/20 02:56:34;;;;;;;8.70;6.70;;;19.00;89.30;;;;;;5007050;28;20460;-51
2022/07/20 02:59:01;;;;;;;8.80;6.30;;;19.00;87.70;;;;;;5006610;28;20465;-51
2022/07/20 03:01:28;;;;;;;7.80;6.83;;;19.00;86.20;;;;;;5008243;28;20887;-52
2022/07/20 03:03:56;;;;;;;19.13;6.00;;;19.00;87.00;;;;;;5008524;28;20913;-52
2022/07/20 03:06:22;;;;;;;9.10;6.33;;;19.00;85.20;;;;;;5008675;28;20950;-51
2022/07/20 03:08:49;;;;;;;6.10;5.50;;;18.90;87.00;;;;;;5010730;28;20878;-52
2022/07/20 03:11:15;;;;;;;11.03;6.13;;;18.90;85.20;;;;;;5010654;28;20464;-51
2022/07/20 03:13:42;;;;;;;15.17;5.87;;;18.90;85.20;;;;;;5012248;28;20622;-51
2022/07/20 03:16:08;;;;;;;21.50;6.33;;;18.90;83.80;;;;;;5009857;28;20459;-52
2022/07/20 03:18:35;;;;;;;8.57;6.30;;;18.90;84.30;;;;;;5014011;28;20977;-51
2022/07/20 03:21:03;;;;;;;6.90;5.73;;;18.90;84.40;;;;;;5010398;28;20885;-53
2022/07/20 03:23:29;;;;;;;8.60;5.80;;;18.90;84.50;;;;;;5011809;28;20483;-51
2022/07/20 03:25:56;;;;;;;6.30;5.70;;;18.90;82.70;;;;;;5012931;28;20467;-52
2022/07/20 03:28:23;;;;;;;10.03;6.23;;;18.90;81.80;;;;;;5012563;28;20517;-52
2022/07/20 03:30:49;;;;;;;6.83;5.67;;;18.90;83.80;;;;;;5006656;28;20484;-52
2022/07/20 03:33:16;;;;;;;6.50;5.63;;;18.90;86.20;;;;;;5013531;28;20447;-52
2022/07/20 03:38:17;;;;;;;7.60;5.40;;;19.00;84.30;;;;;;5029013;28;20941;-54
2022/07/20 03:40:44;;;;;;;7.97;5.43;;;19.00;82.30;;;;;;5027158;28;20873;-52
2022/07/20 03:43:11;;;;;;;11.50;6.30;;;19.00;82.30;;;;;;5031514;28;21111;-52
2022/07/20 03:45:37;;;;;;;6.70;6.00;;;19.00;79.90;;;;;;5029569;28;20516;-53
2022/07/20 03:48:05;;;;;;;6.60;5.90;;;19.00;83.00;;;;;;5012887;28;20542;-52
2022/07/20 03:50:31;;;;;;;5.83;5.37;;;19.00;81.30;;;;;;5011276;28;21019;-51
2022/07/20 03:52:58;;;;;;;7.10;6.40;;;19.00;80.70;;;;;;5017183;28;21143;-51
2022/07/20 03:55:26;;;;;;;11.53;6.57;;;19.00;79.10;;;;;;5014336;28;20463;-51
2022/07/20 03:57:52;;;;;;;7.30;5.67;;;19.10;78.70;;;;;;5013026;28;20484;-53
2022/07/20 04:00:19;;;;;;;7.87;6.10;;;19.10;78.60;;;;;;5020888;28;20466;-53
2022/07/20 04:02:46;;;;;;;10.33;7.20;;;19.10;80.60;;;;;;5009630;28;20557;-51
2022/07/20 04:05:12;;;;;;;12.93;6.47;;;19.10;79.30;;;;;;5010889;28;20463;-52
2022/07/20 04:07:39;;;;;;;13.37;7.47;;;19.20;80.90;;;;;;5012518;28;20985;-52
2022/07/20 04:10:06;;;;;;;12.40;6.97;;;19.30;80.40;;;;;;5019228;28;21453;-55
2022/07/20 04:12:34;;;;;;;8.20;5.90;;;19.30;76.90;;;;;;5012403;28;20526;-53
2022/07/20 04:15:00;;;;;;;16.37;6.87;;;19.30;76.80;;;;;;5017519;28;20497;-53
2022/07/20 04:17:27;;;;;;;23.43;6.90;;;19.40;73.20;;;;;;5020305;28;20486;-54
2022/07/20 04:19:54;;;;;;;21.80;7.07;;;19.40;76.50;;;;;;5003839;28;20464;-52
2022/07/20 04:22:20;;;;;;;9.83;6.53;;;19.50;78.60;;;;;;5009608;28;20526;-55
2022/07/20 04:24:47;;;;;;;9.80;6.17;;;19.60;81.70;;;;;;5007044;28;20958;-54
2022/07/20 04:27:14;;;;;;;8.93;5.43;;;19.70;86.20;;;;;;5016501;28;20509;-53
2022/07/20 04:29:42;;;;;;;17.77;7.07;;;19.80;90.00;;;;;;5016071;28;20468;-53
2022/07/20 04:32:09;;;;;;;9.97;6.40;;;19.90;92.00;;;;;;5013828;28;20525;-53
2022/07/20 04:34:35;;;;;;;10.73;6.03;;;19.90;95.70;;;;;;5022498;28;20532;-52
2022/07/20 04:37:02;;;;;;;12.43;6.07;;;20.10;96.70;;;;;;5008942;28;20597;-51
2022/07/20 04:39:29;;;;;;;9.93;6.70;;;20.20;98.50;;;;;;5009804;28;20805;-52
2022/07/20 04:41:55;;;;;;;17.20;6.30;;;20.30;96.80;;;;;;5006218;28;20479;-52
2022/07/20 04:44:22;;;;;;;6.83;6.13;;;20.30;97.40;;;;;;5011008;28;20578;-53
2022/07/20 04:46:50;;;;;;;12.73;7.00;;;20.40;98.90;;;;;;5005181;28;20488;-53
2022/07/20 04:49:16;;;;;;;12.03;6.40;;;20.40;99.50;;;;;;5010077;28;20560;-53
2022/07/20 04:51:43;;;;;;;15.20;7.40;;;20.50;99.90;;;;;;5007287;28;20521;-52
2022/07/20 04:54:10;;;;;;;8.53;6.53;;;20.50;99.90;;;;;;5010487;28;20460;-54
2022/07/20 04:56:37;;;;;;;8.73;6.20;;;20.60;99.90;;;;;;5019803;28;20463;-54
2022/07/20 04:59:04;;;;;;;18.63;7.07;;;20.60;99.90;;;;;;5010485;28;20482;-53
2022/07/20 05:01:31;;;;;;;13.23;7.00;;;20.80;99.90;;;;;;5007494;28;20467;-53
2022/07/20 05:03:59;;;;;;;12.00;6.43;;;20.80;99.90;;;;;;5010219;28;20471;-53
2022/07/20 05:06:25;;;;;;;10.20;6.90;;;20.90;99.90;;;;;;5012378;28;20475;-52
2022/07/20 05:08:52;;;;;;;9.80;5.83;;;21.00;99.90;;;;;;5009051;28;20602;-53
2022/07/20 05:11:18;;;;;;;10.90;7.47;;;21.10;99.90;;;;;;5006461;28;20464;-53
2022/07/20 05:13:45;;;;;;;14.70;7.30;;;21.20;99.90;;;;;;5019394;28;20444;-52
2022/07/20 05:16:12;;;;;;;21.40;7.30;;;21.30;99.90;;;;;;5010271;28;20553;-54
2022/07/20 05:18:38;;;;;;;18.80;6.47;;;21.40;99.90;;;;;;5011815;28;20834;-52
2022/07/20 05:21:06;;;;;;;8.90;6.40;;;21.50;99.90;;;;;;5018210;28;20460;-52
2022/07/20 05:23:33;;;;;;;24.23;6.40;;;21.50;99.90;;;;;;5003246;28;20479;-52
2022/07/20 05:26:00;;;;;;;12.77;6.73;;;21.70;99.90;;;;;;5013657;28;20599;-52
2022/07/20 05:28:26;;;;;;;10.80;6.50;;;21.70;99.90;;;;;;5011688;28;20490;-53
2022/07/20 05:30:53;;;;;;;10.30;5.87;;;21.70;99.90;;;;;;5008450;28;20979;-53
2022/07/20 05:33:19;;;;;;;17.40;6.90;;;21.80;99.90;;;;;;5017703;28;20464;-54
2022/07/20 05:35:49;;;;;;;16.40;7.40;;;21.90;99.90;;;;;;5011184;28;20464;-53
2022/07/20 05:38:17;;;;;;;12.37;7.40;;;22.00;99.90;;;;;;5011425;28;20467;-53
2022/07/20 05:40:43;;;;;;;10.33;7.10;;;22.10;99.90;;;;;;5012167;28;20497;-53
2022/07/20 05:43:10;;;;;;;14.60;6.33;;;22.20;99.90;;;;;;5012398;28;20542;-53
2022/07/20 05:45:37;;;;;;;6.77;5.70;;;22.30;99.90;;;;;;5009496;28;20468;-53
2022/07/20 05:48:05;;;;;;;11.83;7.30;;;22.40;99.90;;;;;;5020254;28;20530;-54
2022/07/20 05:50:32;;;;;;;9.30;7.50;;;22.50;99.90;;;;;;5006523;28;22042;-52
2022/07/20 05:52:59;;;;;;;10.93;6.87;;;22.60;99.90;;;;;;5019282;28;20513;-53
2022/07/20 05:55:26;;;;;;;10.80;7.13;;;22.60;99.90;;;;;;5006518;28;20946;-55
2022/07/20 05:57:53;;;;;;;7.27;6.57;;;22.70;99.90;;;;;;5008290;28;20484;-52
2022/07/20 06:00:20;;;;;;;12.10;6.67;;;22.80;99.90;;;;;;5012767;28;20456;-54
2022/07/20 06:02:46;;;;;;;23.00;7.60;;;22.90;99.90;;;;;;5014682;28;20561;-52
2022/07/20 06:05:13;;;;;;;7.27;6.30;;;23.00;99.90;;;;;;5010269;28;20553;-53
2022/07/20 06:07:39;;;;;;;11.53;6.70;;;23.10;99.90;;;;;;5009471;28;20487;-54
2022/07/20 06:10:07;;;;;;;14.30;6.13;;;23.20;99.90;;;;;;5012063;28;20485;-54
2022/07/20 06:12:35;;;;;;;12.33;6.70;;;23.30;99.90;;;;;;5011280;28;20455;-53
2022/07/20 06:15:02;;;;;;;9.10;7.07;;;23.40;99.90;;;;;;5009584;28;20463;-52
2022/07/20 06:17:34;;;;;;;12.10;8.00;;;23.50;99.90;;;;;;5006511;28;20492;-54
2022/07/20 06:20:06;;;;;;;19.27;6.40;;;23.50;99.90;;;;;;5016711;28;20469;-53
2022/07/20 06:22:32;;;;;;;9.23;6.73;;;23.60;99.90;;;;;;5010189;28;20487;-53
2022/07/20 06:24:59;;;;;;;16.20;7.83;;;23.70;99.90;;;;;;5020360;28;20827;-55
2022/07/20 06:27:25;;;;;;;10.93;7.37;;;23.80;99.90;;;;;;5018933;28;20486;-53
2022/07/20 06:29:53;;;;;;;13.80;7.50;;;23.90;99.90;;;;;;5008625;28;20460;-53
2022/07/20 06:32:20;;;;;;;27.07;6.87;;;24.00;99.90;;;;;;5010169;28;20467;-52
2022/07/20 06:34:46;;;;;;;16.20;6.57;;;24.10;99.90;;;;;;5017819;28;20471;-52
2022/07/20 06:37:14;;;;;;;7.80;6.70;;;24.10;99.90;;;;;;5015408;28;20495;-53
2022/07/20 06:39:40;;;;;;;9.80;6.77;;;24.20;99.90;;;;;;5019643;28;20452;-52
2022/07/20 06:42:07;;;;;;;16.50;7.03;;;24.30;99.90;;;;;;5012491;28;20447;-52
2022/07/20 06:44:34;;;;;;;19.87;6.40;;;24.40;99.90;;;;;;5014110;28;20813;-53
2022/07/20 06:47:02;;;;;;;7.03;6.40;;;24.50;99.90;;;;;;5012231;28;20533;-54
2022/07/20 06:49:28;;;;;;;10.80;6.73;;;24.60;99.90;;;;;;5019624;28;21239;-51
2022/07/20 06:51:56;;;;;;;13.20;6.07;;;24.70;99.90;;;;;;5012682;28;20459;-54
2022/07/20 06:54:22;;;;;;;18.50;7.57;;;24.80;99.90;;;;;;5028360;28;20508;-54
2022/07/20 06:56:49;;;;;;;9.97;6.40;;;24.90;99.90;;;;;;5012032;28;20882;-55
2022/07/20 06:59:16;;;;;;;15.93;8.53;;;25.00;99.90;;;;;;5015296;28;20435;-52
2022/07/20 07:01:43;;;;;;;10.43;6.37;;;25.10;99.90;;;;;;5021649;28;20473;-53
2022/07/20 07:04:10;;;;;;;25.13;6.83;;;25.20;99.90;;;;;;5033017;28;20999;-54
2022/07/20 07:06:37;;;;;;;10.43;7.20;;;25.30;99.90;;;;;;5009803;28;20847;-54
2022/07/20 07:09:04;;;;;;;16.60;5.97;;;25.40;99.90;;;;;;5022702;28;20456;-52
2022/07/20 07:11:31;;;;;;;12.00;6.33;;;25.60;99.90;;;;;;5020350;28;20462;-52
2022/07/20 07:13:58;;;;;;;10.30;6.80;;;25.80;99.90;;;;;;5016263;28;20988;-52
2022/07/20 07:16:25;;;;;;;8.23;6.30;;;25.90;99.90;;;;;;5013010;28;21058;-52
2022/07/20 07:18:51;;;;;;;11.80;5.63;;;26.00;99.90;;;;;;5021366;28;20462;-52
2022/07/20 07:21:19;;;;;;;7.23;6.43;;;26.10;99.90;;;;;;5009688;28;20505;-52
2022/07/20 07:23:49;;;;;;;20.60;5.83;;;26.30;99.90;;;;;;5014155;28;20600;-53
2022/07/20 07:26:16;;;;;;;12.70;8.00;;;26.40;99.90;;;;;;5022500;28;20928;-53
2022/07/20 07:28:42;;;;;;;24.37;6.93;;;26.50;99.90;;;;;;5013429;28;20478;-52
2022/07/20 07:31:09;;;;;;;7.63;5.70;;;26.60;99.90;;;;;;5017719;28;20553;-55
2022/07/20 07:33:36;;;;;;;12.23;6.17;;;26.90;99.90;;;;;;5026468;28;20524;-53
2022/07/20 07:36:03;;;;;;;20.33;6.80;;;27.00;99.90;;;;;;5008156;28;20467;-52
2022/07/20 07:38:31;;;;;;;7.33;6.27;;;27.10;99.90;;;;;;5014810;28;20984;-52
2022/07/20 07:40:58;;;;;;;10.83;6.00;;;27.20;99.90;;;;;;5022718;28;20513;-54
2022/07/20 07:43:25;;;;;;;13.07;6.10;;;27.30;99.90;;;;;;5026025;28;20475;-53
2022/07/20 07:45:52;;;;;;;10.00;5.57;;;27.40;99.90;;;;;;5029698;28;20856;-52
2022/07/20 07:48:18;;;;;;;9.27;6.10;;;27.50;99.90;;;;;;5013161;28;20460;-53
2022/07/20 07:50:46;;;;;;;17.40;5.83;;;27.60;99.90;;;;;;5012520;28;20486;-52
2022/07/20 07:53:13;;;;;;;16.10;6.47;;;27.60;99.90;;;;;;5015913;28;20534;-53
2022/07/20 07:55:42;;;;;;;21.90;5.57;;;27.80;99.90;;;;;;5013146;28;20463;-51
2022/07/20 07:58:10;;;;;;;13.00;6.03;;;27.90;99.90;;;;;;5005189;28;21054;-51
2022/07/20 08:00:37;;;;;;;6.47;5.87;;;28.00;99.90;;;;;;5024001;28;20497;-52
2022/07/20 08:03:05;;;;;;;12.63;4.90;;;28.10;99.90;;;;;;5014116;28;20486;-53
2022/07/20 08:05:31;;;;;;;6.93;5.60;;;28.30;99.90;;;;;;5019937;28;20464;-52
2022/07/20 08:07:58;;;;;;;23.13;5.70;;;28.40;99.90;;;;;;5012710;28;20479;-51
2022/07/20 08:10:25;;;;;;;18.60;5.23;;;28.60;99.90;;;;;;5012946;28;20462;-52
2022/07/20 08:12:53;;;;;;;8.80;5.27;;;28.70;99.90;;;;;;5013624;28;20455;-52
2022/07/20 08:15:19;;;;;;;9.37;6.43;;;28.90;99.90;;;;;;5028810;28;20869;-53
2022/07/20 08:17:46;;;;;;;15.90;5.90;;;29.00;99.90;;;;;;5026710;28;20896;-52
2022/07/20 08:20:14;;;;;;;16.40;6.20;;;29.10;99.90;;;;;;5011011;28;20955;-51
2022/07/20 08:22:40;;;;;;;12.83;5.80;;;29.30;99.90;;;;;;5009061;28;20790;-51
2022/07/20 08:25:08;;;;;;;19.60;5.73;;;29.30;99.90;;;;;;5016767;28;20468;-52
2022/07/20 08:27:34;;;;;;;14.93;4.93;;;29.50;99.90;;;;;;5020805;28;20554;-52
2022/07/20 08:30:03;;;;;;;21.50;6.57;;;29.60;99.90;;;;;;5014500;28;20464;-52
2022/07/20 08:32:29;;;;;;;19.33;5.17;;;29.80;99.90;;;;;;5012092;28;20523;-52
2022/07/20 08:34:56;;;;;;;25.07;6.27;;;29.80;99.90;;;;;;5017141;28;20514;-53
2022/07/20 08:37:22;;;;;;;10.27;5.00;;;30.00;99.90;;;;;;5014717;28;20548;-53
2022/07/20 08:39:49;;;;;;;12.53;4.40;;;30.00;99.90;;;;;;5015191;28;20942;-51
2022/07/20 08:42:16;;;;;;;5.73;4.23;;;30.20;99.90;;;;;;5017366;28;20505;-52
2022/07/20 08:44:44;;;;;;;5.53;4.73;;;30.40;99.90;;;;;;5019316;28;20505;-52
2022/07/20 08:47:13;;;;;;;12.43;4.87;;;30.60;99.90;;;;;;5012356;28;20570;-51
2022/07/20 08:49:46;;;;;;;9.73;4.73;;;30.70;99.90;;;;;;5017741;28;20950;-52
2022/07/20 08:52:13;;;;;;;7.60;4.40;;;30.80;99.90;;;;;;5003859;28;20460;-53
2022/07/20 08:54:39;;;;;;;6.77;4.07;;;31.00;99.90;;;;;;5020230;28;20459;-52
2022/07/20 08:57:08;;;;;;;8.23;4.70;;;31.20;99.90;;;;;;5022174;28;20542;-52
2022/07/20 08:59:35;;;;;;;7.87;3.50;;;31.40;99.90;;;;;;5023099;28;20463;-51
2022/07/20 09:02:04;;;;;;;10.17;4.23;;;31.50;99.90;;;;;;5015196;28;20517;-52
2022/07/20 09:04:32;;;;;;;11.60;4.00;;;31.60;99.90;;;;;;5011476;28;20996;-51
2022/07/20 09:06:59;;;;;;;9.53;4.23;;;31.70;99.90;;;;;;5017994;28;20825;-52
2022/07/20 09:09:25;;;;;;;4.73;3.90;;;31.90;99.90;;;;;;5023555;28;20451;-51
2022/07/20 09:11:52;;;;;;;10.83;3.10;;;32.30;99.90;;;;;;5020111;28;20454;-51
2022/07/20 09:14:40;;;;;;;6.97;3.93;;;32.70;99.90;;;;;;5012766;28;20933;-52
2022/07/20 09:17:18;;;;;;;8.50;3.77;;;32.90;99.90;;;;;;5007842;28;20486;-52
2022/07/20 09:19:59;;;;;;;8.13;4.40;;;33.00;99.90;;;;;;5015750;28;20467;-52
2022/07/20 09:22:32;;;;;;;4.63;3.70;;;33.00;99.90;;;;;;5010206;28;21051;-52
2022/07/20 09:25:07;;;;;;;14.17;4.20;;;32.90;99.90;;;;;;5011702;28;20515;-52
2022/07/20 09:27:34;;;;;;;5.50;3.43;;;32.90;99.90;;;;;;5012894;28;20467;-51
2022/07/20 09:30:07;;;;;;;8.07;5.70;;;33.00;99.90;;;;;;5026805;28;20482;-51
2022/07/20 09:32:50;;;;;;;8.43;3.97;;;33.00;99.90;;;;;;5007867;28;20526;-51
2022/07/20 09:35:18;;;;;;;7.30;3.73;;;33.10;99.90;;;;;;5019785;28;20498;-51
2022/07/20 09:37:44;;;;;;;5.03;3.90;;;33.10;99.90;;;;;;5013717;28;21067;-52
2022/07/20 09:40:12;;;;;;;9.30;3.97;;;33.20;99.90;;;;;;5018390;28;20859;-52
2022/07/20 09:42:39;;;;;;;11.50;3.50;;;33.40;99.90;;;;;;5015290;28;20465;-51
2022/07/20 09:45:23;;;;;;;6.50;3.17;;;33.40;99.90;;;;;;5011911;28;20656;-52
2022/07/20 09:48:06;;;;;;;12.73;4.00;;;33.50;99.90;;;;;;5004357;28;20484;-52
2022/07/20 09:50:35;;;;;;;4.50;3.80;;;33.50;99.90;;;;;;5009926;28;20463;-52
2022/07/20 09:53:03;;;;;;;3.53;3.23;;;33.60;99.90;;;;;;5012527;28;20466;-51
2022/07/20 09:55:32;;;;;;;9.67;4.00;;;33.70;99.90;;;;;;5023783;28;20554;-51
2022/07/20 09:57:58;;;;;;;4.20;3.60;;;33.80;99.90;;;;;;5011686;28;20480;-52
2022/07/20 10:00:25;;;;;;;5.00;3.63;;;33.90;99.90;;;;;;5016352;28;20459;-51
2022/07/20 10:02:53;;;;;;;5.17;2.87;;;34.00;99.90;;;;;;5019631;28;20466;-51
2022/07/20 10:05:22;;;;;;;3.23;3.03;;;34.00;99.90;;;;;;5016285;28;20850;-51
2022/07/20 10:07:50;;;;;;;11.40;3.50;;;34.10;99.90;;;;;;5011946;28;20467;-52
2022/07/20 10:10:17;;;;;;;11.13;3.00;;;34.10;99.90;;;;;;5014938;28;20509;-52
2022/07/20 10:12:44;;;;;;;13.93;3.07;;;34.20;99.90;;;;;;5014727;28;20467;-52
2022/07/20 10:15:14;;;;;;;7.23;3.27;;;34.20;99.90;;;;;;5018283;28;20532;-51
2022/07/20 10:17:42;;;;;;;3.80;2.60;;;34.30;99.90;;;;;;5011697;28;20494;-52
2022/07/20 10:20:30;;;;;;;4.17;2.90;;;34.40;99.90;;;;;;5003752;28;20466;-51
2022/07/20 10:23:30;;;;;;;6.67;3.20;;;34.40;99.90;;;;;;5006800;28;20966;-51
2022/07/20 10:25:58;;;;;;;3.97;3.50;;;34.30;99.90;;;;;;5008577;28;20459;-52
2022/07/20 10:28:33;;;;;;;4.10;3.77;;;34.40;99.90;;;;;;5011088;28;20574;-55
2022/07/20 10:31:04;;;;;;;3.30;2.87;;;34.50;99.90;;;;;;5019282;28;20458;-51
2022/07/20 10:33:33;;;;;;;10.13;4.13;;;34.60;99.90;;;;;;5015485;28;20455;-52
2022/07/20 10:38:59;;;;;;;8.30;2.80;;;34.70;99.90;;;;;;5009027;28;20964;-51
2022/07/20 10:44:28;;;;;;;6.60;3.10;;;34.80;99.90;;;;;;5019370;28;20483;-52
2022/07/20 10:46:55;;;;;;;8.40;3.50;;;34.90;99.90;;;;;;5006715;28;20510;-52
2022/07/20 10:50:04;;;;;;;4.20;3.30;;;34.80;99.90;;;;;;5010684;28;20455;-51
2022/07/20 10:52:32;;;;;;;6.23;3.47;;;34.90;99.90;;;;;;5001885;28;20473;-51
2022/07/20 10:54:59;;;;;;;13.60;4.20;;;35.00;99.90;;;;;;5007394;28;20956;-51
2022/07/20 10:57:27;;;;;;;4.90;3.10;;;35.00;99.90;;;;;;5019757;28;20494;-51
2022/07/20 11:00:07;;;;;;;16.57;3.23;;;35.10;99.90;;;;;;5016197;28;20472;-52
2022/07/20 11:02:35;;;;;;;3.67;2.83;;;35.10;99.90;;;;;;5012810;28;20463;-51
2022/07/20 11:05:03;;;;;;;24.23;3.90;;;35.20;99.90;;;;;;5010539;28;20492;-51
2022/07/20 11:07:32;;;;;;;9.13;3.77;;;35.20;99.90;;;;;;5012212;28;20478;-52
2022/07/20 11:10:00;;;;;;;9.20;3.63;;;35.10;99.90;;;;;;5011171;28;20963;-50
2022/07/20 11:12:29;;;;;;;3.53;3.23;;;35.10;99.90;;;;;;5016473;28;20526;-52
2022/07/20 11:14:56;;;;;;;6.20;3.20;;;35.20;99.90;;;;;;5010986;28;20836;-51
2022/07/20 11:17:23;;;;;;;10.03;3.37;;;35.30;99.90;;;;;;5025004;28;20482;-51
2022/07/20 11:19:50;;;;;;;5.80;3.40;;;35.30;99.90;;;;;;5011878;28;20464;-51
2022/07/20 11:22:18;;;;;;;5.63;3.13;;;35.30;99.90;;;;;;5009470;28;20451;-52
2022/07/20 11:24:54;;;;;;;9.30;3.47;;;35.30;99.90;;;;;;5020283;28;20482;-52
2022/07/20 11:27:21;;;;;;;5.30;3.20;;;35.40;99.90;;;;;;5017857;28;20487;-52
2022/07/20 11:29:49;;;;;;;9.53;3.17;;;35.40;99.90;;;;;;5008631;28;20474;-51
2022/07/20 11:32:15;;;;;;;5.90;3.50;;;35.50;99.90;;;;;;5017639;28;20462;-51
2022/07/20 11:34:47;;;;;;;7.60;3.10;;;35.70;99.90;;;;;;5017079;28;20459;-51
2022/07/20 11:37:18;;;;;;;12.53;2.70;;;35.80;99.90;;;;;;5010369;28;20486;-51
2022/07/20 11:39:45;;;;;;;7.10;3.50;;;35.70;99.90;;;;;;5015087;28;20471;-51
2022/07/20 11:42:12;;;;;;;11.60;3.80;;;35.70;99.90;;;;;;5017477;28;20435;-50
2022/07/20 11:44:40;;;;;;;4.40;3.00;;;35.70;99.90;;;;;;5011901;28;20488;-51
2022/07/20 11:47:06;;;;;;;4.53;3.20;;;35.80;99.90;;;;;;5014409;28;20525;-51
2022/07/20 11:49:33;;;;;;;3.20;2.67;;;35.90;99.90;;;;;;5018035;28;20474;-51
2022/07/20 11:52:03;;;;;;;3.23;3.00;;;35.90;99.90;;;;;;5021133;28;20448;-51
2022/07/20 11:54:35;;;;;;;16.53;2.83;;;35.90;99.90;;;;;;5018761;28;20826;-52
2022/07/20 11:57:02;;;;;;;3.80;2.80;;;36.00;99.90;;;;;;5019707;28;20538;-51
2022/07/20 11:59:29;;;;;;;6.63;3.00;;;36.10;99.90;;;;;;5015219;28;20523;-52
2022/07/20 12:01:58;;;;;;;3.50;2.63;;;36.10;99.90;;;;;;5014243;28;20464;-51
2022/07/20 12:04:25;;;;;;;4.67;3.63;;;36.10;99.90;;;;;;5030844;28;21004;-51
2022/07/20 12:06:54;;;;;;;3.37;2.77;;;36.10;99.90;;;;;;5013947;28;20486;-52
2022/07/20 12:09:23;;;;;;;3.33;2.67;;;36.10;99.90;;;;;;5013595;28;20530;-51
2022/07/20 12:11:56;;;;;;;6.70;3.40;;;36.00;99.90;;;;;;5027094;28;20861;-51
2022/07/20 12:14:31;;;;;;;4.70;2.50;;;36.10;99.90;;;;;;5005285;28;20456;-51
2022/07/20 12:17:09;;;;;;;5.57;2.63;;;36.00;99.90;;;;;;5018815;28;20549;-51
2022/07/20 12:19:36;;;;;;;7.60;3.00;;;36.10;99.90;;;;;;5025629;28;20460;-51
2022/07/20 12:22:03;;;;;;;3.60;3.30;;;36.20;99.90;;;;;;5011528;28;20490;-50
2022/07/20 12:24:30;;;;;;;2.73;2.53;;;36.30;99.90;;;;;;5010267;28;20831;-52
2022/07/20 12:27:06;;;;;;;3.13;2.87;;;36.30;99.90;;;;;;5020099;28;20467;-52
2022/07/20 12:29:32;;;;;;;3.27;3.00;;;36.10;99.90;;;;;;5012206;28;20929;-52
2022/07/20 12:32:00;;;;;;;4.90;2.90;;;36.20;99.90;;;;;;5010903;28;20522;-52
2022/07/20 12:34:27;;;;;;;3.20;2.73;;;36.30;99.90;;;;;;5018083;28;20456;-51
2022/07/20 12:36:54;;;;;;;4.93;2.90;;;36.40;99.90;;;;;;5019440;28;20510;-51
2022/07/20 12:39:38;;;;;;;5.77;3.33;;;36.60;99.90;;;;;;5010228;28;20915;-51
2022/07/20 12:42:15;;;;;;;9.33;3.00;;;36.60;99.90;;;;;;5007080;28;20537;-51
2022/07/20 12:44:42;;;;;;;9.63;3.43;;;36.30;99.90;;;;;;5014719;28;20490;-52
2022/07/20 12:47:12;;;;;;;14.00;3.73;;;36.20;99.90;;;;;;5010771;28;20530;-51
2022/07/20 12:49:39;;;;;;;8.13;3.47;;;36.00;99.90;;;;;;5021127;28;20497;-52
2022/07/20 12:52:06;;;;;;;7.63;3.30;;;36.10;99.90;;;;;;5017430;28;20525;-52
2022/07/20 12:54:32;;;;;;;9.10;3.50;;;36.10;99.90;;;;;;5010466;28;21023;-51
2022/07/20 12:56:59;;;;;;;5.17;3.23;;;36.30;99.90;;;;;;5014865;28;20569;-52
2022/07/20 12:59:27;;;;;;;9.00;3.73;;;36.30;99.90;;;;;;5012315;28;20461;-51